Time;durP1;ratioP1;P1;durP2;ratioP2;P2;SDS_P1;SDS_P2;PMS_P1;PMS_P2;Temp;Humidity;BMP_temperature;BMP_pressure;BME280_temperature;BME280_humidity;BME280_pressure;Samples;Min_cycle;Max_cycle;Signal;HPM_P1;HPM_P2
2024/01/06 00:00:49;;;;;;;;;;;;;;;;;;5055344;28;19925;-91
2024/01/06 00:03:15;;;;;;;;;;;;;;;;;;5051278;28;19925;-90
2024/01/06 00:05:41;;;;;;;;;;;;;;;;;;5034430;28;20011;-90
2024/01/06 00:08:07;;;;;;;;;;;;;;;;;;5031145;28;19924;-85
2024/01/06 00:10:33;;;;;;;;;;;;;;;;;;5028408;28;19954;-88
2024/01/06 00:12:59;;;;;;;;;;;;;;;;;;5034564;28;19940;-87
2024/01/06 00:15:25;;;;;;;;;;;;;;;;;;5037934;28;19924;-90
2024/01/06 00:17:51;;;;;;;;;;;;;;;;;;5021704;28;19974;-88
2024/01/06 00:20:17;;;;;;;;;;;;;;;;;;5034707;28;19928;-89
2024/01/06 00:22:44;;;;;;;;;;;;;;;;;;5034897;28;19924;-90
2024/01/06 00:25:10;;;;;;;;;;;;;;;;;;5043426;28;19925;-90
2024/01/06 00:27:36;;;;;;;;;;;;;;;;;;5038503;28;19928;-89
2024/01/06 00:30:02;;;;;;;;;;;;;;;;;;5034776;28;19931;-90
2024/01/06 00:32:29;;;;;;;;;;;;;;;;;;5038518;28;20010;-86
2024/01/06 00:34:55;;;;;;;;;;;;;;;;;;5035264;28;20455;-90
2024/01/06 00:37:21;;;;;;;;;;;;;;;;;;5020434;28;19930;-90
2024/01/06 00:39:47;;;;;;;;;;;;;;;;;;5052905;28;19928;-88
2024/01/06 00:42:12;;;;;;;;;;;;;;;;;;5050898;28;21152;-89
2024/01/06 00:44:38;;;;;;;;;;;;;;;;;;5044341;28;20392;-89
2024/01/06 00:47:04;;;;;;;;;;;;;;;;;;5041015;28;20293;-89
2024/01/06 00:49:30;;;;;;;;;;;;;;;;;;5058173;28;19924;-88
2024/01/06 00:51:56;;;;;;;;;;;;;;;;;;5025497;28;19991;-89
2024/01/06 00:54:22;;;;;;;;;;;;;;;;;;5047383;28;19925;-89
2024/01/06 00:56:48;;;;;;;;;;;;;;;;;;5058413;28;19930;-90
2024/01/06 00:59:14;;;;;;;;;;;;;;;;;;5057406;28;19924;-88
2024/01/06 01:01:40;;;;;;;;;;;;;;;;;;5058797;28;19924;-90
2024/01/06 01:04:06;;;;;;;;;;;;;;;;;;5042175;28;20023;-93
2024/01/06 01:06:32;;;;;;;;;;;;;;;;;;5057330;28;19925;-90
2024/01/06 01:08:58;;;;;;;;;;;;;;;;;;5055789;28;20015;-90
2024/01/06 01:11:24;;;;;;;;;;;;;;;;;;5039468;28;19970;-90
2024/01/06 01:13:50;;;;;;;;;;;;;;;;;;5040781;28;19931;-88
2024/01/06 01:16:16;;;;;;;;;;;;;;;;;;5058000;28;19934;-90
2024/01/06 01:18:42;;;;;;;;;;;;;;;;;;5041677;28;19928;-89
2024/01/06 01:21:08;;;;;;;;;;;;;;;;;;5057772;28;19972;-91
2024/01/06 01:23:34;;;;;;;;;;;;;;;;;;5057756;28;19943;-90
2024/01/06 01:26:00;;;;;;;;;;;;;;;;;;5056105;28;19924;-91
2024/01/06 01:28:26;;;;;;;;;;;;;;;;;;5056805;28;20296;-89
2024/01/06 01:30:52;;;;;;;;;;;;;;;;;;5058615;28;19931;-91
2024/01/06 01:33:18;;;;;;;;;;;;;;;;;;5056374;28;19947;-88
2024/01/06 01:35:44;;;;;;;;;;;;;;;;;;5037323;28;20042;-91
2024/01/06 01:38:10;;;;;;;;;;;;;;;;;;5050160;28;19925;-90
2024/01/06 01:40:36;;;;;;;;;;;;;;;;;;5027667;28;20042;-91
2024/01/06 01:43:02;;;;;;;;;;;;;;;;;;5037151;28;19932;-90
2024/01/06 01:45:28;;;;;;;;;;;;;;;;;;5021332;28;19924;-90
2024/01/06 01:47:54;;;;;;;;;;;;;;;;;;5048402;28;19925;-89
2024/01/06 01:50:22;;;;;;;;;;;;;;;;;;5057576;28;19929;-85
2024/01/06 01:52:47;;;;;;;;;;;;;;;;;;5040413;28;19947;-90
2024/01/06 01:55:13;;;;;;;;;;;;;;;;;;5057818;28;19924;-88
2024/01/06 01:57:39;;;;;;;;;;;;;;;;;;5053029;28;19927;-91
2024/01/06 02:00:05;;;;;;;;;;;;;;;;;;5057687;28;19931;-89
2024/01/06 02:02:32;;;;;;;;;;;;;;;;;;5040359;28;19925;-91
2024/01/06 02:04:58;;;;;;;;;;;;;;;;;;5039656;28;19924;-91
2024/01/06 02:07:24;;;;;;;;;;;;;;;;;;5020309;28;20377;-91
2024/01/06 02:09:50;;;;;;;;;;;;;;;;;;5020933;28;20267;-90
2024/01/06 02:12:16;;;;;;;;;;;;;;;;;;5039998;28;19932;-91
2024/01/06 02:14:43;;;;;;;;;;;;;;;;;;5057083;28;19928;-91
2024/01/06 02:17:09;;;;;;;;;;;;;;;;;;5040546;28;19924;-90
2024/01/06 02:19:35;;;;;;;;;;;;;;;;;;5026038;28;19932;-91
2024/01/06 02:22:00;;;;;;;;;;;;;;;;;;5019762;28;19972;-89
2024/01/06 02:24:26;;;;;;;;;;;;;;;;;;5020458;28;20388;-89
2024/01/06 02:26:52;;;;;;;;;;;;;;;;;;5021132;28;19948;-91
2024/01/06 02:29:18;;;;;;;;;;;;;;;;;;5036143;28;19975;-91
2024/01/06 02:31:44;;;;;;;;;;;;;;;;;;5049715;28;19920;-90
2024/01/06 02:34:10;;;;;;;;;;;;;;;;;;5038244;28;20406;-91
2024/01/06 02:36:36;;;;;;;;;;;;;;;;;;5035718;28;20381;-90
2024/01/06 02:39:02;;;;;;;;;;;;;;;;;;5049569;28;20050;-90
2024/01/06 02:41:28;;;;;;;;;;;;;;;;;;5036270;28;19931;-88
2024/01/06 02:43:54;;;;;;;;;;;;;;;;;;5050728;28;20535;-90
2024/01/06 02:46:20;;;;;;;;;;;;;;;;;;5056718;28;20366;-92
2024/01/06 02:48:46;;;;;;;;;;;;;;;;;;5056196;28;20504;-90
2024/01/06 02:51:12;;;;;;;;;;;;;;;;;;5056392;28;20470;-91
2024/01/06 02:53:38;;;;;;;;;;;;;;;;;;5039689;28;20273;-91
2024/01/06 02:56:04;;;;;;;;;;;;;;;;;;5041580;28;19925;-91
2024/01/06 02:58:30;;;;;;;;;;;;;;;;;;5035029;28;19979;-92
2024/01/06 03:00:56;;;;;;;;;;;;;;;;;;5035993;28;19929;-90
2024/01/06 03:03:22;;;;;;;;;;;;;;;;;;5036328;28;19931;-90
2024/01/06 03:05:49;;;;;;;;;;;;;;;;;;5019129;28;20165;-89
2024/01/06 03:08:15;;;;;;;;;;;;;;;;;;5037376;28;19991;-88
2024/01/06 03:10:41;;;;;;;;;;;;;;;;;;5032780;28;19924;-88
2024/01/06 03:13:07;;;;;;;;;;;;;;;;;;5019260;28;20570;-90
2024/01/06 03:15:33;;;;;;;;;;;;;;;;;;5036313;28;19928;-88
2024/01/06 03:17:59;;;;;;;;;;;;;;;;;;5019990;28;19931;-90
2024/01/06 03:20:25;;;;;;;;;;;;;;;;;;5019921;28;19932;-89
2024/01/06 03:22:51;;;;;;;;;;;;;;;;;;5018378;28;20530;-86
2024/01/06 03:25:17;;;;;;;;;;;;;;;;;;5051334;28;19924;-88
2024/01/06 03:27:43;;;;;;;;;;;;;;;;;;5054532;28;20019;-89
2024/01/06 03:30:09;;;;;;;;;;;;;;;;;;5039247;28;19997;-88
2024/01/06 03:32:35;;;;;;;;;;;;;;;;;;5020137;28;19971;-89
2024/01/06 03:35:01;;;;;;;;;;;;;;;;;;5035442;28;19952;-88
2024/01/06 03:37:27;;;;;;;;;;;;;;;;;;5035498;28;19925;-90
2024/01/06 03:39:53;;;;;;;;;;;;;;;;;;5035419;28;20433;-89
2024/01/06 03:42:19;;;;;;;;;;;;;;;;;;5038146;28;20379;-89
2024/01/06 03:44:45;;;;;;;;;;;;;;;;;;5055336;28;19934;-88
2024/01/06 03:47:11;;;;;;;;;;;;;;;;;;5055864;28;19931;-88
2024/01/06 03:49:37;;;;;;;;;;;;;;;;;;5025062;28;19924;-88
2024/01/06 03:52:03;;;;;;;;;;;;;;;;;;5049118;28;19932;-88
2024/01/06 03:54:29;;;;;;;;;;;;;;;;;;5055457;28;20378;-90
2024/01/06 03:56:55;;;;;;;;;;;;;;;;;;5055132;28;20493;-88
2024/01/06 03:59:20;;;;;;;;;;;;;;;;;;5038247;28;19928;-87
2024/01/06 04:01:46;;;;;;;;;;;;;;;;;;5038721;28;20018;-90
2024/01/06 04:04:12;;;;;;;;;;;;;;;;;;5034377;28;19925;-88
2024/01/06 04:06:38;;;;;;;;;;;;;;;;;;5037821;28;19931;-89
2024/01/06 04:09:05;;;;;;;;;;;;;;;;;;5038518;28;19986;-88
2024/01/06 04:11:31;;;;;;;;;;;;;;;;;;5053263;28;19924;-89
2024/01/06 04:13:57;;;;;;;;;;;;;;;;;;5054465;28;19992;-90
2024/01/06 04:16:23;;;;;;;;;;;;;;;;;;5038874;28;19950;-90
2024/01/06 04:18:49;;;;;;;;;;;;;;;;;;5055041;28;20370;-89
2024/01/06 04:21:15;;;;;;;;;;;;;;;;;;5056952;28;19924;-90
2024/01/06 04:23:41;;;;;;;;;;;;;;;;;;5058601;28;19924;-90
2024/01/06 04:26:07;;;;;;;;;;;;;;;;;;5056046;28;20003;-90
2024/01/06 04:28:33;;;;;;;;;;;;;;;;;;5042013;28;19925;-90
2024/01/06 04:30:59;;;;;;;;;;;;;;;;;;5042299;28;20526;-89
2024/01/06 04:33:24;;;;;;;;;;;;;;;;;;5042850;28;20262;-89
2024/01/06 04:35:50;;;;;;;;;;;;;;;;;;5041949;28;20022;-90
2024/01/06 04:38:16;;;;;;;;;;;;;;;;;;5042734;28;19936;-90
2024/01/06 04:40:43;;;;;;;;;;;;;;;;;;5042000;28;19977;-90
2024/01/06 04:43:09;;;;;;;;;;;;;;;;;;5058342;28;19928;-89
2024/01/06 04:45:36;;;;;;;;;;;;;;;;;;5042364;28;19931;-90
2024/01/06 04:48:03;;;;;;;;;;;;;;;;;;5039895;28;19928;-90
2024/01/06 04:50:29;;;;;;;;;;;;;;;;;;5039020;28;19925;-90
2024/01/06 04:52:55;;;;;;;;;;;;;;;;;;5056268;28;19925;-88
2024/01/06 04:55:21;;;;;;;;;;;;;;;;;;5058869;28;19931;-88
2024/01/06 04:57:47;;;;;;;;;;;;;;;;;;5033277;28;20420;-90
2024/01/06 05:00:12;;;;;;;;;;;;;;;;;;5022606;28;20362;-90
2024/01/06 05:02:38;;;;;;;;;;;;;;;;;;5039112;28;19928;-91
2024/01/06 05:05:04;;;;;;;;;;;;;;;;;;5022118;28;19925;-91
2024/01/06 05:07:30;;;;;;;;;;;;;;;;;;5038246;28;20015;-89
2024/01/06 05:09:56;;;;;;;;;;;;;;;;;;5038174;28;19929;-91
2024/01/06 05:12:22;;;;;;;;;;;;;;;;;;5022640;28;20402;-87
2024/01/06 05:14:48;;;;;;;;;;;;;;;;;;5038505;28;19974;-90
2024/01/06 05:17:14;;;;;;;;;;;;;;;;;;5038424;28;20366;-91
2024/01/06 05:19:40;;;;;;;;;;;;;;;;;;5038677;28;20011;-90
2024/01/06 05:22:06;;;;;;;;;;;;;;;;;;5036886;28;20496;-94
2024/01/06 05:24:32;;;;;;;;;;;;;;;;;;5038673;28;20321;-91
2024/01/06 05:26:58;;;;;;;;;;;;;;;;;;5052976;28;20482;-90
2024/01/06 05:29:25;;;;;;;;;;;;;;;;;;5037603;28;19976;-90
2024/01/06 05:31:51;;;;;;;;;;;;;;;;;;5037633;28;19931;-91
2024/01/06 05:34:17;;;;;;;;;;;;;;;;;;5038396;28;20015;-88
2024/01/06 05:36:43;;;;;;;;;;;;;;;;;;5037390;28;19931;-85
2024/01/06 05:39:10;;;;;;;;;;;;;;;;;;5037890;28;19932;-88
2024/01/06 05:41:35;;;;;;;;;;;;;;;;;;5038012;28;19925;-91
2024/01/06 05:44:01;;;;;;;;;;;;;;;;;;5044424;28;19974;-90
2024/01/06 05:46:27;;;;;;;;;;;;;;;;;;5041109;28;19928;-90
2024/01/06 05:48:55;;;;;;;;;;;;;;;;;;5057246;28;19931;-88
2024/01/06 05:51:21;;;;;;;;;;;;;;;;;;5037124;28;19925;-90
2024/01/06 05:53:47;;;;;;;;;;;;;;;;;;5036384;28;19924;-87
2024/01/06 05:56:13;;;;;;;;;;;;;;;;;;5057477;28;19924;-91
2024/01/06 05:58:39;;;;;;;;;;;;;;;;;;5038892;28;19925;-90
2024/01/06 06:01:05;;;;;;;;;;;;;;;;;;5040323;28;20369;-91
2024/01/06 06:03:31;;;;;;;;;;;;;;;;;;5031307;28;19924;-89
2024/01/06 06:05:57;;;;;;;;;;;;;;;;;;5036481;28;20027;-88
2024/01/06 06:08:23;;;;;;;;;;;;;;;;;;5037287;28;20008;-90
2024/01/06 06:11:04;;;;;;;;;;;;;;;;;;5020893;28;19932;-85
2024/01/06 06:13:30;;;;;;;;;;;;;;;;;;5036585;28;20019;-89
2024/01/06 06:15:57;;;;;;;;;;;;;;;;;;5020447;28;19980;-90
2024/01/06 06:18:23;;;;;;;;;;;;;;;;;;5024067;28;19975;-90
2024/01/06 06:20:49;;;;;;;;;;;;;;;;;;5053814;28;19925;-88
2024/01/06 06:23:15;;;;;;;;;;;;;;;;;;5053230;28;19951;-91
2024/01/06 06:25:41;;;;;;;;;;;;;;;;;;5057097;28;19951;-90
2024/01/06 06:28:07;;;;;;;;;;;;;;;;;;5043321;28;20407;-90
2024/01/06 06:30:33;;;;;;;;;;;;;;;;;;5055914;28;19925;-90
2024/01/06 06:32:59;;;;;;;;;;;;;;;;;;5040006;28;19928;-90
2024/01/06 06:35:25;;;;;;;;;;;;;;;;;;5057153;28;20297;-90
2024/01/06 06:37:51;;;;;;;;;;;;;;;;;;5056352;28;19947;-90
2024/01/06 06:40:17;;;;;;;;;;;;;;;;;;5056643;28;19932;-90
2024/01/06 06:42:43;;;;;;;;;;;;;;;;;;5052749;28;20043;-90
2024/01/06 06:45:11;;;;;;;;;;;;;;;;;;5056125;28;20409;-90
2024/01/06 06:47:37;;;;;;;;;;;;;;;;;;5040489;28;19924;-91
2024/01/06 06:50:03;;;;;;;;;;;;;;;;;;5039444;28;19925;-90
2024/01/06 06:52:29;;;;;;;;;;;;;;;;;;5056447;28;19924;-90
2024/01/06 06:54:55;;;;;;;;;;;;;;;;;;5035495;28;19932;-86
2024/01/06 06:57:21;;;;;;;;;;;;;;;;;;5018823;28;19936;-90
2024/01/06 06:59:47;;;;;;;;;;;;;;;;;;5036604;28;19972;-89
2024/01/06 07:02:13;;;;;;;;;;;;;;;;;;5035747;28;19975;-87
2024/01/06 07:04:39;;;;;;;;;;;;;;;;;;5039582;28;19931;-91
2024/01/06 07:07:05;;;;;;;;;;;;;;;;;;5046896;28;19924;-91
2024/01/06 07:09:31;;;;;;;;;;;;;;;;;;5039595;28;19931;-90
2024/01/06 07:11:57;;;;;;;;;;;;;;;;;;5056436;28;19928;-85
2024/01/06 07:14:23;;;;;;;;;;;;;;;;;;5055614;28;19954;-90
2024/01/06 07:16:49;;;;;;;;;;;;;;;;;;5056261;28;19970;-88
2024/01/06 07:19:15;;;;;;;;;;;;;;;;;;5028619;28;19999;-89
2024/01/06 07:21:41;;;;;;;;;;;;;;;;;;5035580;28;19925;-89
2024/01/06 07:24:07;;;;;;;;;;;;;;;;;;5035630;28;19928;-91
2024/01/06 07:26:33;;;;;;;;;;;;;;;;;;5036091;28;20043;-90
2024/01/06 07:28:59;;;;;;;;;;;;;;;;;;5035349;28;19928;-85
2024/01/06 07:31:24;;;;;;;;;;;;;;;;;;5019323;28;19931;-90
2024/01/06 07:33:50;;;;;;;;;;;;;;;;;;5035279;28;19971;-88
2024/01/06 07:36:17;;;;;;;;;;;;;;;;;;5018553;28;19933;-90
2024/01/06 07:38:45;;;;;;;;;;;;;;;;;;5019763;28;19928;-90
2024/01/06 07:41:11;;;;;;;;;;;;;;;;;;5044412;28;20285;-90
2024/01/06 07:43:37;;;;;;;;;;;;;;;;;;5050076;28;19925;-90
2024/01/06 07:46:03;;;;;;;;;;;;;;;;;;5018647;28;20428;-86
2024/01/06 07:48:29;;;;;;;;;;;;;;;;;;5019185;28;20341;-90
2024/01/06 07:50:55;;;;;;;;;;;;;;;;;;5018940;28;19978;-90
2024/01/06 07:53:21;;;;;;;;;;;;;;;;;;5051059;28;19928;-89
2024/01/06 07:55:47;;;;;;;;;;;;;;;;;;5039173;28;19925;-90
2024/01/06 07:58:13;;;;;;;;;;;;;;;;;;5030665;28;20394;-89
2024/01/06 08:00:39;;;;;;;;;;;;;;;;;;5035716;28;19932;-89
2024/01/06 08:03:06;;;;;;;;;;;;;;;;;;5036665;28;19925;-87
2024/01/06 08:05:32;;;;;;;;;;;;;;;;;;5036060;28;19924;-92
2024/01/06 08:07:58;;;;;;;;;;;;;;;;;;5018450;28;19947;-88
2024/01/06 08:10:23;;;;;;;;;;;;;;;;;;5034478;28;19925;-89
2024/01/06 08:12:49;;;;;;;;;;;;;;;;;;5035015;28;19925;-89
2024/01/06 08:15:15;;;;;;;;;;;;;;;;;;5018752;28;20424;-90
2024/01/06 08:17:42;;;;;;;;;;;;;;;;;;5020145;28;20258;-88
2024/01/06 08:20:08;;;;;;;;;;;;;;;;;;5035185;28;19975;-90
2024/01/06 08:22:34;;;;;;;;;;;;;;;;;;5051214;28;19925;-89
2024/01/06 08:25:00;;;;;;;;;;;;;;;;;;5052212;28;19925;-90
2024/01/06 08:27:26;;;;;;;;;;;;;;;;;;5017701;28;20404;-90
2024/01/06 08:29:52;;;;;;;;;;;;;;;;;;5019106;28;19971;-86
2024/01/06 08:32:18;;;;;;;;;;;;;;;;;;5019165;28;19924;-88
2024/01/06 08:34:44;;;;;;;;;;;;;;;;;;5038003;28;19932;-89
2024/01/06 08:37:10;;;;;;;;;;;;;;;;;;5054048;28;20014;-87
2024/01/06 08:39:36;;;;;;;;;;;;;;;;;;5043125;28;19929;-91
2024/01/06 08:42:02;;;;;;;;;;;;;;;;;;5032134;28;19925;-73
2024/01/06 08:44:28;;;;;;;;;;;;;;;;;;5025554;28;19924;-72
2024/01/06 08:46:54;;;;;;;;;;;;;;;;;;5071584;28;20384;-71
2024/01/06 08:49:20;;;;;;;;;;;;;;;;;;5053244;28;19924;-71
2024/01/06 08:51:46;;;;;;;;;;;;;;;;;;5071044;28;20019;-85
2024/01/06 08:54:12;;;;;;;;;;;;;;;;;;5037349;28;19925;-87
2024/01/06 08:56:38;;;;;;;;;;;;;;;;;;5032030;28;20012;-88
2024/01/06 08:59:04;;;;;;;;;;;;;;;;;;5018468;28;19925;-86
2024/01/06 09:01:31;;;;;;;;;;;;;;;;;;5018346;28;19925;-86
2024/01/06 09:03:57;;;;;;;;;;;;;;;;;;5022697;28;19931;-87
2024/01/06 09:06:23;;;;;;;;;;;;;;;;;;5037713;28;19925;-87
2024/01/06 09:08:49;;;;;;;;;;;;;;;;;;5041820;28;19930;-86
2024/01/06 09:11:15;;;;;;;;;;;;;;;;;;5024855;28;19960;-86
2024/01/06 09:13:41;;;;;;;;;;;;;;;;;;5020910;28;19925;-86
2024/01/06 09:16:07;;;;;;;;;;;;;;;;;;5050185;28;19964;-87
2024/01/06 09:18:33;;;;;;;;;;;;;;;;;;5040820;28;19928;-86
2024/01/06 09:20:59;;;;;;;;;;;;;;;;;;5050301;28;20053;-87
2024/01/06 09:23:25;;;;;;;;;;;;;;;;;;5045728;28;19931;-87
2024/01/06 09:25:52;;;;;;;;;;;;;;;;;;5037888;28;19979;-85
2024/01/06 09:28:18;;;;;;;;;;;;;;;;;;5020130;28;20362;-87
2024/01/06 09:30:44;;;;;;;;;;;;;;;;;;5021399;28;19925;-86
2024/01/06 09:33:10;;;;;;;;;;;;;;;;;;5037739;28;19943;-87
2024/01/06 09:35:36;;;;;;;;;;;;;;;;;;5039725;28;20263;-87
2024/01/06 09:38:02;;;;;;;;;;;;;;;;;;5040511;28;19924;-87
2024/01/06 09:40:28;;;;;;;;;;;;;;;;;;5022524;28;19944;-85
2024/01/06 09:42:54;;;;;;;;;;;;;;;;;;5039182;28;20013;-87
2024/01/06 09:45:23;;;;;;;;;;;;;;;;;;5033805;28;19932;-87
2024/01/06 09:47:49;;;;;;;;;;;;;;;;;;5036217;28;19931;-87
2024/01/06 09:50:14;;;;;;;;;;;;;;;;;;5036728;28;20019;-83
2024/01/06 09:52:44;;;;;;;;;;;;;;;;;;5019608;28;19951;-85
2024/01/06 09:55:10;;;;;;;;;;;;;;;;;;5036733;28;19925;-85
2024/01/06 09:57:36;;;;;;;;;;;;;;;;;;5035410;28;20521;-86
2024/01/06 10:00:01;;;;;;;;;;;;;;;;;;5036906;28;19925;-86
2024/01/06 10:02:27;;;;;;;;;;;;;;;;;;5027363;28;19959;-86
2024/01/06 10:04:53;;;;;;;;;;;;;;;;;;5030176;28;19978;-87
2024/01/06 10:07:19;;;;;;;;;;;;;;;;;;5025849;28;19929;-86
2024/01/06 10:09:45;;;;;;;;;;;;;;;;;;5030287;28;20055;-86
2024/01/06 10:12:11;;;;;;;;;;;;;;;;;;5039565;28;19925;-87
2024/01/06 10:14:38;;;;;;;;;;;;;;;;;;5049367;28;19924;-86
2024/01/06 10:17:04;;;;;;;;;;;;;;;;;;5032455;28;20003;-88
2024/01/06 10:19:30;;;;;;;;;;;;;;;;;;5043589;28;20374;-86
2024/01/06 10:22:00;;;;;;;;;;;;;;;;;;5046860;28;19943;-86
2024/01/06 10:24:26;;;;;;;;;;;;;;;;;;5030045;28;19925;-87
2024/01/06 10:26:52;;;;;;;;;;;;;;;;;;5038291;28;20341;-86
2024/01/06 10:29:18;;;;;;;;;;;;;;;;;;5024204;28;19925;-86
2024/01/06 10:31:44;;;;;;;;;;;;;;;;;;5045965;28;20008;-86
2024/01/06 10:34:10;;;;;;;;;;;;;;;;;;5031894;28;19959;-88
2024/01/06 10:36:36;;;;;;;;;;;;;;;;;;5054965;28;19931;-87
2024/01/06 10:39:02;;;;;;;;;;;;;;;;;;5045356;28;19925;-86
2024/01/06 10:41:28;;;;;;;;;;;;;;;;;;5018510;28;19925;-85
2024/01/06 10:43:55;;;;;;;;;;;;;;;;;;5042582;28;19931;-85
2024/01/06 10:46:21;;;;;;;;;;;;;;;;;;5027950;28;19924;-86
2024/01/06 10:48:47;;;;;;;;;;;;;;;;;;5038230;28;19928;-86
2024/01/06 10:51:13;;;;;;;;;;;;;;;;;;5038695;28;19975;-84
2024/01/06 10:53:39;;;;;;;;;;;;;;;;;;5035160;28;19929;-86
2024/01/06 10:56:05;;;;;;;;;;;;;;;;;;5018818;28;19925;-86
2024/01/06 10:58:31;;;;;;;;;;;;;;;;;;5034077;28;19932;-86
2024/01/06 11:00:58;;;;;;;;;;;;;;;;;;5035363;28;20312;-86
2024/01/06 11:03:24;;;;;;;;;;;;;;;;;;5018891;28;19925;-85
2024/01/06 11:05:50;;;;;;;;;;;;;;;;;;5016600;28;19933;-86
2024/01/06 11:08:16;;;;;;;;;;;;;;;;;;5034865;28;19925;-85
2024/01/06 11:10:42;;;;;;;;;;;;;;;;;;5034478;28;19924;-85
2024/01/06 11:13:08;;;;;;;;;;;;;;;;;;5034400;28;20381;-85
2024/01/06 11:15:34;;;;;;;;;;;;;;;;;;5024951;28;19925;-85
2024/01/06 11:18:00;;;;;;;;;;;;;;;;;;5017473;28;19928;-84
2024/01/06 11:20:26;;;;;;;;;;;;;;;;;;5034466;28;19925;-84
2024/01/06 11:22:52;;;;;;;;;;;;;;;;;;5025678;28;19925;-85
2024/01/06 11:25:19;;;;;;;;;;;;;;;;;;5042779;28;20012;-86
2024/01/06 11:27:45;;;;;;;;;;;;;;;;;;5032457;28;19977;-85
2024/01/06 11:30:11;;;;;;;;;;;;;;;;;;5030689;28;19970;-86
2024/01/06 11:32:42;;;;;;;;;;;;;;;;;;5043064;28;19971;-86
2024/01/06 11:35:11;;;;;;;;;;;;;;;;;;5027983;28;19924;-86
2024/01/06 11:37:40;;;;;;;;;;;;;;;;;;5038856;28;19935;-86
2024/01/06 11:40:05;;;;;;;;;;;;;;;;;;5043162;28;19928;-86
2024/01/06 11:42:31;;;;;;;;;;;;;;;;;;5042841;28;20423;-83
2024/01/06 11:44:57;;;;;;;;;;;;;;;;;;5053733;28;19925;-85
2024/01/06 11:47:23;;;;;;;;;;;;;;;;;;5036816;28;19925;-85
2024/01/06 11:49:49;;;;;;;;;;;;;;;;;;5036648;28;20013;-86
2024/01/06 11:52:15;;;;;;;;;;;;;;;;;;5036801;28;19925;-86
2024/01/06 11:54:41;;;;;;;;;;;;;;;;;;5045389;28;20366;-87
2024/01/06 11:57:07;;;;;;;;;;;;;;;;;;5037413;28;19925;-85
2024/01/06 11:59:33;;;;;;;;;;;;;;;;;;5040758;28;20350;-84
2024/01/06 12:01:59;;;;;;;;;;;;;;;;;;5030553;28;20277;-87
2024/01/06 12:04:27;;;;;;;;;;;;;;;;;;5029073;28;19924;-86
2024/01/06 12:06:54;;;;;;;;;;;;;;;;;;5032879;28;20381;-86
2024/01/06 12:09:20;;;;;;;;;;;;;;;;;;5035308;28;19964;-84
2024/01/06 12:11:46;;;;;;;;;;;;;;;;;;5040892;28;20002;-86
2024/01/06 12:14:12;;;;;;;;;;;;;;;;;;5053873;28;19925;-87
2024/01/06 12:16:38;;;;;;;;;;;;;;;;;;5053092;28;20019;-84
2024/01/06 12:19:04;;;;;;;;;;;;;;;;;;5034911;28;19925;-86
2024/01/06 12:21:31;;;;;;;;;;;;;;;;;;5047545;28;19931;-87
2024/01/06 12:23:57;;;;;;;;;;;;;;;;;;5032932;28;19925;-86
2024/01/06 12:26:23;;;;;;;;;;;;;;;;;;5051409;28;19925;-86
2024/01/06 12:28:50;;;;;;;;;;;;;;;;;;5052668;28;19924;-85
2024/01/06 12:31:16;;;;;;;;;;;;;;;;;;5053926;28;20294;-87
2024/01/06 12:33:41;;;;;;;;;;;;;;;;;;5053883;28;19925;-86
2024/01/06 12:36:08;;;;;;;;;;;;;;;;;;5049707;28;20378;-86
2024/01/06 12:38:34;;;;;;;;;;;;;;;;;;5035544;28;19970;-86
2024/01/06 12:41:00;;;;;;;;;;;;;;;;;;5044830;28;19928;-86
2024/01/06 12:43:27;;;;;;;;;;;;;;;;;;5027657;28;19924;-87
2024/01/06 12:45:53;;;;;;;;;;;;;;;;;;5026623;28;19925;-86
2024/01/06 12:48:19;;;;;;;;;;;;;;;;;;5021020;28;19925;-86
2024/01/06 12:50:45;;;;;;;;;;;;;;;;;;5034227;28;20336;-86
2024/01/06 12:53:12;;;;;;;;;;;;;;;;;;5037661;28;19924;-84
2024/01/06 12:55:39;;;;;;;;;;;;;;;;;;5034161;28;20426;-87
2024/01/06 12:58:05;;;;;;;;;;;;;;;;;;5025524;28;20362;-86
2024/01/06 13:00:31;;;;;;;;;;;;;;;;;;5032475;28;19925;-85
2024/01/06 13:02:57;;;;;;;;;;;;;;;;;;5020289;28;19925;-86
2024/01/06 13:05:23;;;;;;;;;;;;;;;;;;5034158;28;19924;-87
2024/01/06 13:07:49;;;;;;;;;;;;;;;;;;5025362;28;19925;-87
2024/01/06 13:10:15;;;;;;;;;;;;;;;;;;5029867;28;19932;-86
2024/01/06 13:12:41;;;;;;;;;;;;;;;;;;5040322;28;20014;-86
2024/01/06 13:15:11;;;;;;;;;;;;;;;;;;5043795;28;19929;-86
2024/01/06 13:17:36;;;;;;;;;;;;;;;;;;5040336;28;19943;-86
2024/01/06 13:20:02;;;;;;;;;;;;;;;;;;5035169;28;19924;-86
2024/01/06 13:22:28;;;;;;;;;;;;;;;;;;5045322;28;19932;-86
2024/01/06 13:24:54;;;;;;;;;;;;;;;;;;5053565;28;20031;-85
2024/01/06 13:27:20;;;;;;;;;;;;;;;;;;5025194;28;19987;-86
2024/01/06 13:29:46;;;;;;;;;;;;;;;;;;5052016;28;19932;-83
2024/01/06 13:32:13;;;;;;;;;;;;;;;;;;5036832;28;20019;-86
2024/01/06 13:34:39;;;;;;;;;;;;;;;;;;5036000;28;19924;-87
2024/01/06 13:37:06;;;;;;;;;;;;;;;;;;5035801;28;19925;-85
2024/01/06 13:39:32;;;;;;;;;;;;;;;;;;5021834;28;19932;-85
2024/01/06 13:41:58;;;;;;;;;;;;;;;;;;5036276;28;19924;-86
2024/01/06 13:44:24;;;;;;;;;;;;;;;;;;5036253;28;19925;-86
2024/01/06 13:46:50;;;;;;;;;;;;;;;;;;5025734;28;20362;-85
2024/01/06 13:49:16;;;;;;;;;;;;;;;;;;5038345;28;19932;-85
2024/01/06 13:51:42;;;;;;;;;;;;;;;;;;5039340;28;19924;-85
2024/01/06 13:54:09;;;;;;;;;;;;;;;;;;5042080;28;20012;-86
2024/01/06 13:56:35;;;;;;;;;;;;;;;;;;5035985;28;19925;-85
2024/01/06 13:59:01;;;;;;;;;;;;;;;;;;5018974;28;19933;-85
2024/01/06 14:01:27;;;;;;;;;;;;;;;;;;5019768;28;19969;-86
2024/01/06 14:04:02;;;;;;;;;;;;;;;;;;5051561;28;19932;-85
2024/01/06 14:06:31;;;;;;;;;;;;;;;;;;5036110;28;20435;-85
2024/01/06 14:08:57;;;;;;;;;;;;;;;;;;5049920;28;19928;-85
2024/01/06 14:11:23;;;;;;;;;;;;;;;;;;5028363;28;19971;-86
2024/01/06 14:13:49;;;;;;;;;;;;;;;;;;5038314;28;19956;-86
2024/01/06 14:16:15;;;;;;;;;;;;;;;;;;5027486;28;19928;-86
2024/01/06 14:18:42;;;;;;;;;;;;;;;;;;5053958;28;19924;-86
2024/01/06 14:21:07;;;;;;;;;;;;;;;;;;5026836;28;19925;-86
2024/01/06 14:23:33;;;;;;;;;;;;;;;;;;5035755;28;19951;-87
2024/01/06 14:25:59;;;;;;;;;;;;;;;;;;5035236;28;19925;-87
2024/01/06 14:28:25;;;;;;;;;;;;;;;;;;5050523;28;19948;-85
2024/01/06 14:30:52;;;;;;;;;;;;;;;;;;5030644;28;20007;-87
2024/01/06 14:33:18;;;;;;;;;;;;;;;;;;5046635;28;19955;-85
2024/01/06 14:35:45;;;;;;;;;;;;;;;;;;5030672;28;20418;-85
2024/01/06 14:38:11;;;;;;;;;;;;;;;;;;5046160;28;19925;-86
2024/01/06 14:40:37;;;;;;;;;;;;;;;;;;5043287;28;19935;-87
2024/01/06 14:43:04;;;;;;;;;;;;;;;;;;5034496;28;19925;-85
2024/01/06 14:45:30;;;;;;;;;;;;;;;;;;5028380;28;19974;-87
2024/01/06 14:47:56;;;;;;;;;;;;;;;;;;5034068;28;19929;-85
2024/01/06 14:50:22;;;;;;;;;;;;;;;;;;5033166;28;19924;-86
2024/01/06 14:52:49;;;;;;;;;;;;;;;;;;5038201;28;19925;-86
2024/01/06 14:55:15;;;;;;;;;;;;;;;;;;5035792;28;19925;-86
2024/01/06 14:57:40;;;;;;;;;;;;;;;;;;5029997;28;20015;-86
2024/01/06 15:00:10;;;;;;;;;;;;;;;;;;5021466;28;19928;-87
2024/01/06 15:02:36;;;;;;;;;;;;;;;;;;5036970;28;19931;-87
2024/01/06 15:05:04;;;;;;;;;;;;;;;;;;5043427;28;19925;-87
2024/01/06 15:07:31;;;;;;;;;;;;;;;;;;5036762;28;19924;-87
2024/01/06 15:09:57;;;;;;;;;;;;;;;;;;5034671;28;20298;-84
2024/01/06 15:12:23;;;;;;;;;;;;;;;;;;5036477;28;19929;-87
2024/01/06 15:14:49;;;;;;;;;;;;;;;;;;5026394;28;20397;-87
2024/01/06 15:17:18;;;;;;;;;;;;;;;;;;5033825;28;20066;-85
2024/01/06 15:19:44;;;;;;;;;;;;;;;;;;5034794;28;19931;-85
2024/01/06 15:22:10;;;;;;;;;;;;;;;;;;5036518;28;20012;-86
2024/01/06 15:24:35;;;;;;;;;;;;;;;;;;5053409;28;19978;-85
2024/01/06 15:27:01;;;;;;;;;;;;;;;;;;5035296;28;19924;-85
2024/01/06 15:29:27;;;;;;;;;;;;;;;;;;5042665;28;19928;-84
2024/01/06 15:31:56;;;;;;;;;;;;;;;;;;5049735;28;20362;-85
2024/01/06 15:34:23;;;;;;;;;;;;;;;;;;5043062;28;20005;-86
2024/01/06 15:36:49;;;;;;;;;;;;;;;;;;5044168;28;19925;-84
2024/01/06 15:39:15;;;;;;;;;;;;;;;;;;5018733;28;19932;-85
2024/01/06 15:41:41;;;;;;;;;;;;;;;;;;5027577;28;20030;-85
2024/01/06 15:44:07;;;;;;;;;;;;;;;;;;5050232;28;20388;-84
2024/01/06 15:46:33;;;;;;;;;;;;;;;;;;5024872;28;20328;-90
2024/01/06 15:48:59;;;;;;;;;;;;;;;;;;5033801;28;19928;-88
2024/01/06 15:51:25;;;;;;;;;;;;;;;;;;5029370;28;20006;-86
2024/01/06 15:53:51;;;;;;;;;;;;;;;;;;5033811;28;19931;-84
2024/01/06 15:56:22;;;;;;;;;;;;;;;;;;5047152;28;19971;-88
2024/01/06 15:58:48;;;;;;;;;;;;;;;;;;5029509;28;19990;-88
2024/01/06 16:01:14;;;;;;;;;;;;;;;;;;5026315;28;19925;-87
2024/01/06 16:03:40;;;;;;;;;;;;;;;;;;5036975;28;20271;-87
2024/01/06 16:06:06;;;;;;;;;;;;;;;;;;5035917;28;19964;-86
2024/01/06 16:08:32;;;;;;;;;;;;;;;;;;5024144;28;19924;-86
2024/01/06 16:10:58;;;;;;;;;;;;;;;;;;5054411;28;19925;-87
2024/01/06 16:13:24;;;;;;;;;;;;;;;;;;5039291;28;19983;-88
2024/01/06 16:15:50;;;;;;;;;;;;;;;;;;5054364;28;19924;-86
2024/01/06 16:18:16;;;;;;;;;;;;;;;;;;5039576;28;19929;-88
2024/01/06 16:20:42;;;;;;;;;;;;;;;;;;5037694;28;19924;-86
2024/01/06 16:23:13;;;;;;;;;;;;;;;;;;5042140;28;19932;-87
2024/01/06 16:25:39;;;;;;;;;;;;;;;;;;5036127;28;20471;-88
2024/01/06 16:28:06;;;;;;;;;;;;;;;;;;5032406;28;20377;-85
2024/01/06 16:30:32;;;;;;;;;;;;;;;;;;5043623;28;19925;-85
2024/01/06 16:33:00;;;;;;;;;;;;;;;;;;5027440;28;19932;-87
2024/01/06 16:35:26;;;;;;;;;;;;;;;;;;5035640;28;19924;-85
2024/01/06 16:37:52;;;;;;;;;;;;;;;;;;5050789;28;19924;-85